createdAt,value
2022-08-03T00:01:45.669Z,3.35
2022-08-03T00:04:15.311Z,3.30
2022-08-03T00:06:45.718Z,2.58
2022-08-03T00:09:16.896Z,2.55
2022-08-03T00:11:46.463Z,4.05
2022-08-03T00:14:15.956Z,2.85
2022-08-03T00:16:45.562Z,2.30
2022-08-03T00:19:15.143Z,2.17
2022-08-03T00:21:46.071Z,3.70
2022-08-03T00:24:17.230Z,2.30
2022-08-03T00:26:46.863Z,2.60
2022-08-03T00:29:16.358Z,2.33
2022-08-03T00:31:52.474Z,2.70
2022-08-03T00:34:36.702Z,2.30
2022-08-03T00:37:12.285Z,3.28
2022-08-03T00:39:43.887Z,2.50
2022-08-03T00:42:15.674Z,2.28
2022-08-03T00:44:46.812Z,2.47
2022-08-03T00:47:16.431Z,3.90
2022-08-03T00:49:46.171Z,2.17
2022-08-03T00:52:17.300Z,2.40
2022-08-03T00:54:48.430Z,2.88
2022-08-03T00:57:18.201Z,2.40
2022-08-03T00:59:47.981Z,3.03
2022-08-03T01:02:17.900Z,3.28
2022-08-03T01:04:47.749Z,3.15
2022-08-03T01:07:23.773Z,2.78
2022-08-03T01:10:02.770Z,2.50
2022-08-03T01:12:39.950Z,3.10
2022-08-03T01:15:16.692Z,4.25
2022-08-03T01:17:52.602Z,4.72
2022-08-03T01:20:24.263Z,2.28
2022-08-03T01:23:20.141Z,2.47
2022-08-03T01:26:07.828Z,3.30
2022-08-03T01:28:58.859Z,2.22
2022-08-03T01:31:34.548Z,2.50
2022-08-03T01:34:27.819Z,2.28
2022-08-03T01:37:00.040Z,2.58
2022-08-03T01:39:32.360Z,2.10
2022-08-03T01:42:06.631Z,3.22
2022-08-03T01:44:42.037Z,3.72
2022-08-03T01:47:14.750Z,5.32
2022-08-03T01:49:47.318Z,3.00
2022-08-03T01:52:20.336Z,4.50
2022-08-03T01:54:53.954Z,2.20
2022-08-03T01:57:24.593Z,2.28
2022-08-03T01:59:57.622Z,2.58
2022-08-03T02:02:34.137Z,2.80
2022-08-03T02:05:10.660Z,4.28
2022-08-03T02:07:43.826Z,5.28
2022-08-03T02:10:16.538Z,4.10
2022-08-03T02:13:07.059Z,2.30
2022-08-03T02:15:38.895Z,2.83
2022-08-03T02:18:11.613Z,2.60
2022-08-03T02:20:43.649Z,2.25
2022-08-03T02:23:13.871Z,2.95
2022-08-03T02:25:47.357Z,2.92
2022-08-03T02:28:20.388Z,2.92
2022-08-03T02:30:58.963Z,2.97
2022-08-03T02:33:34.398Z,2.60
2022-08-03T02:36:05.020Z,3.35
2022-08-03T02:38:38.518Z,2.70
2022-08-03T02:41:15.388Z,3.10
2022-08-03T02:44:05.717Z,2.20
2022-08-03T02:46:40.264Z,2.20
2022-08-03T02:49:40.814Z,2.38
2022-08-03T02:52:05.815Z,2.90
2022-08-03T02:54:43.278Z,2.30
2022-08-03T02:57:14.522Z,2.20
2022-08-03T02:59:45.728Z,2.75
2022-08-03T03:02:17.621Z,2.10
2022-08-03T03:05:52.758Z,2.33
2022-08-03T03:07:51.866Z,2.60
2022-08-03T03:10:24.423Z,3.05
2022-08-03T03:12:57.067Z,2.20
2022-08-03T03:15:29.112Z,2.45
2022-08-03T03:17:59.166Z,1.85
2022-08-03T03:20:33.215Z,2.10
2022-08-03T03:23:06.354Z,3.47
2022-08-03T03:25:37.602Z,3.22
2022-08-03T03:28:08.889Z,1.90
2022-08-03T03:30:39.060Z,3.45
2022-08-03T03:33:09.107Z,2.42
2022-08-03T03:35:40.826Z,3.05
2022-08-03T03:38:12.115Z,2.63
2022-08-03T03:40:42.493Z,2.38
2022-08-03T03:43:12.818Z,5.07
2022-08-03T03:45:44.076Z,2.30
2022-08-03T03:48:13.776Z,3.50
2022-08-03T03:50:46.520Z,2.28
2022-08-03T03:53:16.756Z,2.80
2022-08-03T03:56:01.536Z,2.47
2022-08-03T03:58:34.039Z,2.30
2022-08-03T04:01:03.803Z,2.50
2022-08-03T04:03:33.540Z,3.75
2022-08-03T04:06:22.199Z,2.83
2022-08-03T04:09:14.604Z,2.33
2022-08-03T04:11:50.727Z,4.00
2022-08-03T04:14:22.636Z,2.75
2022-08-03T04:16:55.413Z,2.10
2022-08-03T04:19:30.201Z,2.47
2022-08-03T04:22:05.550Z,3.45
2022-08-03T04:24:40.297Z,2.67
2022-08-03T04:27:13.442Z,2.30
2022-08-03T04:29:48.825Z,2.97
2022-08-03T04:32:20.716Z,2.30
2022-08-03T04:34:50.536Z,2.28
2022-08-03T04:37:32.162Z,2.60
2022-08-03T04:40:05.817Z,2.20
2022-08-03T04:42:37.240Z,2.75
2022-08-03T04:45:08.447Z,3.47
2022-08-03T04:47:39.816Z,2.63
2022-08-03T04:50:13.499Z,3.05
2022-08-03T04:52:46.671Z,3.78
2022-08-03T04:55:28.233Z,2.60
2022-08-03T04:57:57.978Z,3.42
2022-08-03T05:00:28.658Z,4.70
2022-08-03T05:02:58.585Z,2.45
2022-08-03T05:05:50.206Z,3.92
2022-08-03T05:08:20.352Z,2.33
2022-08-03T05:10:50.788Z,2.45
2022-08-03T05:13:21.635Z,1.98
2022-08-03T05:15:51.499Z,2.85
2022-08-03T05:18:21.324Z,4.40
2022-08-03T05:20:51.248Z,3.28
2022-08-03T05:23:22.605Z,3.53
2022-08-03T05:25:52.370Z,2.17
2022-08-03T05:28:21.888Z,2.80
2022-08-03T05:30:53.124Z,2.53
2022-08-03T05:33:22.661Z,2.40
2022-08-03T05:35:56.037Z,4.65
2022-08-03T05:38:36.729Z,2.53
2022-08-03T05:41:21.658Z,2.60
2022-08-03T05:43:53.320Z,3.90
2022-08-03T05:46:24.012Z,6.43
2022-08-03T05:48:54.410Z,6.05
2022-08-03T05:51:24.283Z,5.00
2022-08-03T05:53:55.433Z,12.50
2022-08-03T05:56:26.047Z,8.10
2022-08-03T05:58:56.524Z,6.30
2022-08-03T06:01:26.097Z,9.60
2022-08-03T06:03:56.069Z,8.63
2022-08-03T06:06:32.172Z,6.78
2022-08-03T06:09:04.041Z,8.90
2022-08-03T06:11:34.062Z,4.40
2022-08-03T06:14:04.051Z,4.78
2022-08-03T06:16:34.223Z,5.40
2022-08-03T06:19:04.001Z,3.88
2022-08-03T06:21:33.870Z,4.22
2022-08-03T06:24:06.327Z,3.25
2022-08-03T06:26:37.803Z,2.97
2022-08-03T06:29:11.164Z,2.95
2022-08-03T06:31:41.001Z,5.15
2022-08-03T06:34:35.175Z,3.53
2022-08-03T06:37:02.289Z,2.58
2022-08-03T06:39:35.053Z,2.58
2022-08-03T06:42:05.350Z,2.35
2022-08-03T06:44:37.960Z,3.08
2022-08-03T06:47:07.799Z,2.42
2022-08-03T06:49:37.405Z,3.22
2022-08-03T06:52:08.348Z,3.30
2022-08-03T06:54:39.806Z,4.40
2022-08-03T06:57:12.019Z,4.18
2022-08-03T07:00:08.126Z,2.85
2022-08-03T07:02:31.994Z,2.45
2022-08-03T07:05:04.106Z,3.30
2022-08-03T07:07:34.220Z,2.42
2022-08-03T07:10:08.432Z,2.42
2022-08-03T07:12:38.646Z,5.32
2022-08-03T07:15:54.161Z,2.42
2022-08-03T07:18:29.486Z,2.60
2022-08-03T07:21:01.196Z,5.20
2022-08-03T07:23:31.100Z,3.55
2022-08-03T07:26:02.287Z,6.25
2022-08-03T07:28:32.509Z,5.07
2022-08-03T07:31:02.169Z,2.30
2022-08-03T07:33:31.954Z,3.42
2022-08-03T07:36:01.680Z,2.50
2022-08-03T07:38:31.589Z,2.67
2022-08-03T07:41:02.860Z,2.80
2022-08-03T07:43:32.624Z,2.80
2022-08-03T07:46:02.198Z,3.22
2022-08-03T07:48:32.277Z,3.47
2022-08-03T07:51:03.753Z,4.85
2022-08-03T07:53:34.413Z,5.70
2022-08-03T07:56:12.658Z,6.80
2022-08-03T07:58:42.469Z,4.05
2022-08-03T08:01:14.907Z,4.93
2022-08-03T08:03:53.074Z,4.63
2022-08-03T08:06:23.918Z,3.42
2022-08-03T08:08:54.098Z,5.10
2022-08-03T08:11:25.388Z,5.95
2022-08-03T08:13:55.353Z,3.05
2022-08-03T08:16:26.212Z,4.82
2022-08-03T08:18:55.943Z,4.82
2022-08-03T08:21:27.277Z,4.65
2022-08-03T08:24:18.163Z,2.97
2022-08-03T08:26:50.923Z,7.72
2022-08-03T08:29:23.542Z,2.78
2022-08-03T08:31:53.224Z,4.28
2022-08-03T08:34:23.124Z,4.07
2022-08-03T08:36:53.222Z,3.25
2022-08-03T08:39:22.887Z,2.63
2022-08-03T08:41:55.192Z,5.78
2022-08-03T08:44:24.762Z,3.97
2022-08-03T08:46:57.412Z,2.60
2022-08-03T08:49:29.970Z,4.72
2022-08-03T08:52:01.792Z,4.68
2022-08-03T08:54:34.851Z,3.38
2022-08-03T08:57:16.407Z,4.45
2022-08-03T08:59:57.466Z,3.72
2022-08-03T09:02:26.544Z,6.53
2022-08-03T09:04:55.319Z,4.38
2022-08-03T09:07:23.880Z,8.02
2022-08-03T09:10:10.155Z,3.83
2022-08-03T09:12:45.315Z,4.45
2022-08-03T09:15:22.553Z,2.70
2022-08-03T09:17:52.797Z,3.30
2022-08-03T09:20:22.390Z,3.70
2022-08-03T09:22:56.973Z,2.92
2022-08-03T09:25:30.459Z,4.97
2022-08-03T09:28:08.604Z,3.92
2022-08-03T09:30:38.165Z,5.28
2022-08-03T09:33:08.733Z,3.83
2022-08-03T09:35:58.798Z,5.43
2022-08-03T09:38:27.909Z,5.38
2022-08-03T09:41:00.233Z,3.90
2022-08-03T09:43:46.866Z,5.63
2022-08-03T09:46:15.562Z,3.28
2022-08-03T09:48:44.083Z,4.00
2022-08-03T09:52:18.705Z,3.85
2022-08-03T09:54:05.789Z,3.55
2022-08-03T09:56:45.317Z,2.95
2022-08-03T09:59:25.237Z,4.82
2022-08-03T10:01:55.200Z,3.47
2022-08-03T10:04:24.113Z,5.32
2022-08-03T10:07:13.741Z,3.63
2022-08-03T10:09:56.311Z,2.15
2022-08-03T10:12:25.483Z,3.10
2022-08-03T10:14:56.238Z,3.50
2022-08-03T10:17:25.014Z,3.22
2022-08-03T10:19:53.594Z,3.47
2022-08-03T10:22:24.687Z,2.65
2022-08-03T10:24:57.569Z,3.03
2022-08-03T10:27:28.216Z,3.72
2022-08-03T10:30:05.002Z,4.18
2022-08-03T10:32:37.778Z,2.50
2022-08-03T10:35:19.700Z,2.30
2022-08-03T10:37:57.388Z,2.83
2022-08-03T10:40:48.236Z,3.10
2022-08-03T10:43:22.139Z,2.75
2022-08-03T10:45:53.087Z,2.80
2022-08-03T10:48:22.655Z,6.47
2022-08-03T10:50:51.896Z,2.50
2022-08-03T10:53:36.955Z,4.95
2022-08-03T10:56:35.392Z,2.95
2022-08-03T10:59:11.799Z,3.17
2022-08-03T11:02:00.395Z,2.40
2022-08-03T11:04:31.357Z,2.30
2022-08-03T11:07:24.032Z,3.67
2022-08-03T11:09:57.605Z,2.17
2022-08-03T11:12:31.413Z,3.22
2022-08-03T11:31:51.990Z,2.30
2022-08-03T11:34:20.713Z,2.00
2022-08-03T11:37:26.143Z,2.75
2022-08-03T11:39:57.377Z,4.53
2022-08-03T11:42:48.438Z,7.57
2022-08-03T11:45:19.968Z,3.42
2022-08-03T11:47:54.310Z,3.95
2022-08-03T11:50:24.589Z,3.97
2022-08-03T11:52:53.391Z,2.42
2022-08-03T11:55:23.339Z,2.10
2022-08-03T11:59:16.666Z,1.77
2022-08-03T12:00:41.548Z,3.88
2022-08-03T12:03:13.902Z,2.53
2022-08-03T12:05:51.663Z,2.30
2022-08-03T12:08:32.048Z,3.47
2022-08-03T12:11:04.579Z,2.28
2022-08-03T12:14:45.212Z,2.42
2022-08-03T12:16:32.802Z,2.20
2022-08-03T12:19:04.301Z,1.98
2022-08-03T12:21:33.362Z,1.92
2022-08-03T12:24:03.545Z,2.63
2022-08-03T12:26:45.423Z,2.67
2022-08-03T12:29:27.891Z,3.10
2022-08-03T12:31:56.668Z,1.95
2022-08-03T12:34:47.346Z,2.05
2022-08-03T12:37:20.219Z,2.38
2022-08-03T12:40:02.074Z,2.17
2022-08-03T12:42:34.960Z,2.20
2022-08-03T12:45:25.181Z,1.90
2022-08-03T12:47:55.486Z,1.80
2022-08-03T12:50:33.379Z,2.75
2022-08-03T12:53:04.774Z,1.90
2022-08-03T12:55:57.300Z,3.05
2022-08-03T12:58:35.082Z,2.42
2022-08-03T13:01:10.346Z,2.10
2022-08-03T13:03:49.593Z,2.10
2022-08-03T13:06:22.687Z,1.98
2022-08-03T13:09:03.369Z,2.08
2022-08-03T13:11:53.392Z,2.40
2022-08-03T13:14:28.186Z,1.85
2022-08-03T13:16:56.917Z,2.08
2022-08-03T13:19:26.207Z,3.90
2022-08-03T13:22:04.226Z,5.05
2022-08-03T13:24:38.651Z,2.10
2022-08-03T13:28:02.565Z,2.33
2022-08-03T13:30:17.867Z,2.53
2022-08-03T13:33:25.846Z,2.25
2022-08-03T13:36:00.940Z,2.05
2022-08-03T13:38:32.168Z,2.28
2022-08-03T13:41:05.032Z,2.97
2022-08-03T13:43:33.746Z,2.58
2022-08-03T13:46:02.317Z,2.35
2022-08-03T13:48:36.650Z,2.10
2022-08-03T13:51:21.710Z,2.42
2022-08-03T13:53:53.520Z,2.25
2022-08-03T13:56:22.038Z,2.80
2022-08-03T13:58:50.640Z,2.08
2022-08-03T14:01:34.405Z,2.15
2022-08-03T14:04:15.767Z,5.95
2022-08-03T14:06:51.036Z,2.10
2022-08-03T14:09:21.108Z,2.42
2022-08-03T14:12:07.430Z,2.65
2022-08-03T14:14:37.679Z,5.32
2022-08-03T14:17:06.357Z,3.33
2022-08-03T14:19:52.440Z,1.92
2022-08-03T14:22:24.807Z,3.03
2022-08-03T14:24:54.847Z,2.83
2022-08-03T14:27:24.545Z,2.22
2022-08-03T14:29:56.737Z,4.40
2022-08-03T14:32:25.431Z,3.45
2022-08-03T14:34:54.132Z,2.47
2022-08-03T14:37:22.922Z,3.45
2022-08-03T14:40:00.034Z,3.60
2022-08-03T14:42:33.686Z,2.83
2022-08-03T14:45:06.019Z,3.08
2022-08-03T14:49:02.762Z,2.10
2022-08-03T14:50:40.557Z,4.57
2022-08-03T14:53:11.752Z,3.47
2022-08-03T14:55:40.584Z,3.72
2022-08-03T14:58:22.046Z,1.92
2022-08-03T15:00:51.627Z,5.55
2022-08-03T15:03:23.673Z,2.50
2022-08-03T15:05:54.530Z,2.35
2022-08-03T15:08:23.879Z,4.40
2022-08-03T15:10:52.690Z,3.45
2022-08-03T15:13:23.573Z,3.42
2022-08-03T15:15:52.986Z,4.55
2022-08-03T15:18:21.638Z,2.45
2022-08-03T15:20:51.018Z,3.67
2022-08-03T15:23:20.135Z,2.13
2022-08-03T15:26:30.331Z,2.58
2022-08-03T15:28:42.737Z,1.90
2022-08-03T15:31:13.429Z,2.92
2022-08-03T15:33:54.056Z,2.35
2022-08-03T15:36:23.386Z,1.80
2022-08-03T15:38:53.134Z,3.63
2022-08-03T15:41:21.949Z,2.67
2022-08-03T15:43:52.959Z,2.05
2022-08-03T15:46:30.091Z,2.85
2022-08-03T15:48:59.925Z,3.20
2022-08-03T15:51:28.925Z,1.80
2022-08-03T15:53:58.630Z,1.70
2022-08-03T15:56:27.273Z,2.67
2022-08-03T15:59:09.576Z,1.88
2022-08-03T16:01:42.466Z,2.42
2022-08-03T16:04:12.441Z,4.20
2022-08-03T16:06:41.299Z,3.75
2022-08-03T16:09:23.471Z,4.57
2022-08-03T16:11:59.228Z,2.20
2022-08-03T16:14:32.181Z,4.20
2022-08-03T16:17:04.991Z,3.90
2022-08-03T16:19:35.661Z,2.00
2022-08-03T16:22:04.475Z,3.53
2022-08-03T16:24:33.111Z,3.88
2022-08-03T16:27:01.777Z,6.50
2022-08-03T16:29:31.739Z,2.63
2022-08-03T16:32:09.409Z,2.10
2022-08-03T16:34:39.779Z,2.03
2022-08-03T16:37:36.526Z,3.05
2022-08-03T16:39:58.007Z,5.38
2022-08-03T16:42:27.962Z,6.50
2022-08-03T16:44:58.103Z,2.97
2022-08-03T16:47:26.647Z,6.22
2022-08-03T16:49:56.539Z,3.05
2022-08-03T16:52:25.793Z,4.00
2022-08-03T16:54:55.083Z,2.28
2022-08-03T16:57:55.855Z,5.88
2022-08-03T17:00:34.251Z,2.50
2022-08-03T17:03:25.534Z,16.23
2022-08-03T17:05:53.387Z,4.22
2022-08-03T17:08:28.471Z,2.55
2022-08-03T17:10:57.843Z,22.20
2022-08-03T17:13:39.701Z,8.90
2022-08-03T17:16:15.376Z,2.75
2022-08-03T17:18:48.492Z,3.13
2022-08-03T17:21:24.239Z,2.08
2022-08-03T17:23:58.685Z,1.85
2022-08-03T17:26:30.284Z,4.90
2022-08-03T17:29:11.343Z,15.55
2022-08-03T17:31:49.543Z,17.35
2022-08-03T17:34:19.100Z,10.05
2022-08-03T17:37:05.431Z,30.33
2022-08-03T17:39:57.780Z,22.48
2022-08-03T17:42:30.068Z,17.73
2022-08-03T17:45:15.936Z,30.35
2022-08-03T17:50:42.802Z,27.88
2022-08-03T17:53:24.223Z,15.48
2022-08-03T17:56:38.843Z,16.98
2022-08-03T17:59:08.960Z,12.52
2022-08-03T18:02:11.559Z,11.45
2022-08-03T18:04:57.300Z,13.82
2022-08-03T18:07:41.218Z,14.95
2022-08-03T18:10:11.383Z,19.80
2022-08-03T18:12:51.820Z,20.40
2022-08-03T18:15:28.648Z,23.85
2022-08-03T18:18:02.672Z,14.88
2022-08-03T18:20:40.957Z,46.40
2022-08-03T18:23:25.074Z,53.65
2022-08-03T18:26:02.538Z,57.50
2022-08-03T18:28:34.618Z,30.00
2022-08-03T18:31:06.923Z,35.83
2022-08-03T18:34:18.665Z,33.05
2022-08-03T18:36:31.926Z,19.80
2022-08-03T18:39:04.057Z,19.73
2022-08-03T18:41:34.990Z,15.50
2022-08-03T18:44:08.004Z,17.60
2022-08-03T18:47:07.311Z,13.43
2022-08-03T18:49:55.650Z,12.52
2022-08-03T18:52:37.372Z,10.55
2022-08-03T18:55:20.717Z,11.88
2022-08-03T18:58:09.730Z,14.63
2022-08-03T21:13:05.734Z,25.33
